Time;durP1;ratioP1;P1;durP2;ratioP2;P2;SDS_P1;SDS_P2;PMS_P1;PMS_P2;Temp;Humidity;BMP_temperature;BMP_pressure;BME280_temperature;BME280_humidity;BME280_pressure;Samples;Min_cycle;Max_cycle;Signal;HPM_P1;HPM_P2
2022/04/08 00:02:05;;;;;;;0.20;0.20;;;;;;;12.35;89.46;100013.22;4985128;28;20049;-78
2022/04/08 00:04:33;;;;;;;0.20;0.20;;;;;;;12.36;88.37;100025.19;4985527;28;20117;-78
2022/04/08 00:07:00;;;;;;;0.20;0.20;;;;;;;12.31;88.68;100029.94;4984577;28;20478;-79
2022/04/08 00:09:26;;;;;;;0.20;0.20;;;;;;;12.36;89.61;100034.38;4984355;28;20026;-78
2022/04/08 00:11:51;;;;;;;0.20;0.20;;;;;;;12.38;89.94;100036.78;4984524;28;20037;-76
2022/04/08 00:14:18;;;;;;;0.20;0.20;;;;;;;12.35;90.44;100031.94;4983798;28;20041;-79
2022/04/08 00:16:45;;;;;;;0.20;0.20;;;;;;;12.46;90.14;100033.69;4985314;28;20432;-78
2022/04/08 00:19:14;;;;;;;0.20;0.20;;;;;;;12.33;89.60;99990.50;4990471;28;20034;-79
2022/04/08 00:21:43;;;;;;;0.20;0.20;;;;;;;12.55;89.01;100025.84;4988877;28;20022;-79
2022/04/08 00:24:11;;;;;;;0.20;0.20;;;;;;;12.58;88.20;100025.09;4985911;28;20094;-79
2022/04/08 00:26:37;;;;;;;0.20;0.20;;;;;;;12.45;87.68;100009.75;4984762;28;20362;-78
2022/04/08 00:29:05;;;;;;;0.20;0.20;;;;;;;12.52;87.96;100021.03;4986319;28;20038;-79
2022/04/08 00:31:33;;;;;;;0.20;0.20;;;;;;;12.41;87.83;100025.69;4983543;28;20106;-79
2022/04/08 00:34:02;;;;;;;0.20;0.20;;;;;;;12.45;87.61;100020.94;4986139;28;20032;-78
2022/04/08 00:36:27;;;;;;;0.20;0.20;;;;;;;12.56;85.45;100021.84;4985307;28;20034;-76
2022/04/08 00:38:53;;;;;;;0.20;0.20;;;;;;;12.45;85.68;100020.94;4986776;28;20058;-79
2022/04/08 00:41:24;;;;;;;0.20;0.20;;;;;;;12.38;86.25;100009.69;4985841;28;20027;-78
2022/04/08 00:43:52;;;;;;;0.20;0.20;;;;;;;12.54;84.79;100013.06;4984346;28;20030;-77
2022/04/08 00:46:18;;;;;;;0.20;0.20;;;;;;;12.45;85.27;100009.75;4984795;28;20058;-77
2022/04/08 00:48:44;;;;;;;0.20;0.20;;;;;;;12.49;85.25;99999.47;4984746;28;20035;-79
2022/04/08 00:51:11;;;;;;;0.20;0.20;;;;;;;12.50;84.40;100012.22;4985144;28;20074;-77
2022/04/08 00:53:37;;;;;;;0.20;0.20;;;;;;;12.43;84.71;100002.97;4983005;28;20045;-78
2022/04/08 00:56:04;;;;;;;0.20;0.20;;;;;;;12.53;85.09;100003.09;4980793;28;20458;-79
2022/04/08 00:58:31;;;;;;;0.20;0.20;;;;;;;12.49;86.15;100005.03;4981021;28;20082;-79
2022/04/08 01:00:57;;;;;;;0.20;0.20;;;;;;;12.49;87.08;99993.88;4980403;28;20117;-77
2022/04/08 01:03:26;;;;;;;0.20;0.20;;;;;;;12.44;85.94;100002.59;4983119;28;20089;-77
2022/04/08 01:05:51;;;;;;;0.20;0.20;;;;;;;12.38;86.18;100009.69;4985652;28;20389;-78
2022/04/08 01:08:17;;;;;;;0.20;0.20;;;;;;;12.43;85.49;99995.41;4990283;28;20046;-79
2022/04/08 01:10:43;;;;;;;0.20;0.20;;;;;;;12.42;85.73;99993.81;4989207;28;20441;-76
2022/04/08 01:13:08;;;;;;;0.20;0.20;;;;;;;12.48;85.99;99992.28;4982610;28;20125;-79
2022/04/08 01:15:34;;;;;;;0.20;0.20;;;;;;;12.44;84.74;99996.19;4982529;28;20139;-77
2022/04/08 01:18:00;;;;;;;0.20;0.20;;;;;;;12.39;85.18;99988.97;4982333;28;20428;-79
2022/04/08 01:20:26;;;;;;;0.20;0.20;;;;;;;12.38;84.11;99994.94;4982549;28;20035;-76
2022/04/08 01:22:52;;;;;;;0.20;0.20;;;;;;;12.37;85.15;99988.56;4982556;28;20366;-77
2022/04/08 01:25:17;;;;;;;0.20;0.20;;;;;;;12.40;86.43;99993.34;4981566;28;20039;-79
2022/04/08 01:27:43;;;;;;;0.20;0.20;;;;;;;12.38;86.07;99984.56;4981813;28;20019;-78
2022/04/08 01:30:13;;;;;;;0.20;0.20;;;;;;;12.42;86.34;99993.81;4981522;28;20049;-76
2022/04/08 01:32:39;;;;;;;0.20;0.20;;;;;;;12.43;85.74;99987.03;4982395;28;20094;-79
2022/04/08 01:35:08;;;;;;;0.20;0.20;;;;;;;12.40;85.07;99979.41;4981631;28;20070;-79
2022/04/08 01:37:33;;;;;;;0.20;0.20;;;;;;;12.40;85.29;99982.19;4981872;28;20046;-78
2022/04/08 01:40:02;;;;;;;0.20;0.20;;;;;;;12.44;84.67;99985.84;4982377;28;20491;-78
2022/04/08 01:42:28;;;;;;;0.20;0.20;;;;;;;12.54;83.08;99985.16;4981703;28;20062;-78
2022/04/08 01:44:57;;;;;;;0.20;0.20;;;;;;;12.50;82.92;99978.72;4981395;28;20363;-79
2022/04/08 01:47:23;;;;;;;0.20;0.20;;;;;;;12.45;82.61;99976.28;4980487;28;20043;-78
2022/04/08 01:49:51;;;;;;;0.20;0.20;;;;;;;12.30;83.18;99982.88;4980669;28;20034;-77
2022/04/08 01:52:20;;;;;;;0.20;0.20;;;;;;;12.33;83.86;99985.72;4981572;28;20094;-77
2022/04/08 01:54:46;;;;;;;0.20;0.20;;;;;;;12.50;81.10;99984.31;4981705;28;20033;-78
2022/04/08 01:57:11;;;;;;;0.20;0.20;;;;;;;12.41;79.00;99997.78;4982857;28;20035;-77
2022/04/08 01:59:40;;;;;;;0.20;0.20;;;;;;;12.41;78.97;99985.78;4982546;28;20473;-77
2022/04/08 02:02:08;;;;;;;0.20;0.20;;;;;;;12.49;77.85;99988.28;4982485;28;20041;-79
2022/04/08 02:04:35;;;;;;;0.20;0.20;;;;;;;12.43;79.28;99986.22;4982333;28;20033;-79
2022/04/08 02:07:02;;;;;;;0.20;0.20;;;;;;;12.48;79.53;99989.47;4982040;28;20030;-78
2022/04/08 02:09:33;;;;;;;0.20;0.20;;;;;;;12.42;80.09;99979.84;4982582;28;20038;-79
2022/04/08 02:12:05;;;;;;;0.20;0.20;;;;;;;12.43;79.18;99989.81;4982884;28;20053;-78
2022/04/08 02:14:36;;;;;;;0.20;0.20;;;;;;;12.40;80.51;99995.34;4982954;28;20125;-78
2022/04/08 02:17:04;;;;;;;0.20;0.20;;;;;;;12.34;81.43;99986.50;4982665;28;20042;-79
2022/04/08 02:19:30;;;;;;;0.20;0.20;;;;;;;12.32;81.43;100000.03;4982401;28;20035;-79
2022/04/08 02:22:00;;;;;;;0.20;0.20;;;;;;;12.40;82.38;99998.13;4982355;28;20087;-79
2022/04/08 02:24:25;;;;;;;0.20;0.20;;;;;;;12.37;82.85;100002.50;4983451;28;20030;-77
2022/04/08 02:26:54;;;;;;;0.20;0.20;;;;;;;12.38;83.11;100001.31;4981575;28;20061;-79
2022/04/08 02:29:22;;;;;;;0.20;0.20;;;;;;;12.36;83.46;99983.34;4981868;28;20058;-78
2022/04/08 02:31:48;;;;;;;0.20;0.20;;;;;;;12.42;83.11;99996.59;4982868;28;20093;-77
2022/04/08 02:34:19;;;;;;;0.20;0.20;;;;;;;12.37;83.61;99999.72;4983484;28;20035;-79
2022/04/08 02:36:46;;;;;;;0.20;0.20;;;;;;;12.31;83.67;99990.06;4983554;28;20038;-79
2022/04/08 02:39:11;;;;;;;0.20;0.20;;;;;;;12.33;83.83;99996.88;4998787;28;20039;-79
2022/04/08 02:41:37;;;;;;;0.20;0.20;;;;;;;12.30;84.45;99991.22;4979978;28;20485;-78
2022/04/08 02:44:03;;;;;;;0.20;0.20;;;;;;;12.31;84.79;99990.06;4979502;28;20400;-78
2022/04/08 02:46:29;;;;;;;0.20;0.20;;;;;;;12.34;83.71;99989.31;4979870;28;20446;-79
2022/04/08 02:48:57;;;;;;;0.20;0.20;;;;;;;12.33;83.43;100001.66;4981126;28;20048;-77
2022/04/08 02:51:23;;;;;;;0.20;0.20;;;;;;;12.39;83.79;100005.72;4979726;28;20536;-78
2022/04/08 02:53:48;;;;;;;0.20;0.20;;;;;;;12.37;83.73;100001.69;4996664;28;20066;-79
2022/04/08 02:56:14;;;;;;;0.20;0.20;;;;;;;12.35;83.81;100009.63;4978938;28;20040;-79
2022/04/08 02:58:39;;;;;;;0.20;0.20;;;;;;;12.34;83.94;100011.63;4978451;28;20056;-80
2022/04/08 03:01:05;;;;;;;0.20;0.20;;;;;;;12.33;84.52;100013.59;4978174;28;20026;-78
2022/04/08 03:03:33;;;;;;;0.20;0.20;;;;;;;12.38;84.49;100008.88;4978770;28;20076;-78
2022/04/08 03:05:59;;;;;;;0.20;0.20;;;;;;;12.40;83.80;99998.94;4979914;28;20539;-78
2022/04/08 03:08:24;;;;;;;0.20;0.20;;;;;;;12.33;84.28;99994.06;4979360;28;20034;-79
2022/04/08 03:10:52;;;;;;;0.20;0.20;;;;;;;12.30;84.46;99991.22;4979435;28;20114;-79
2022/04/08 03:13:24;;;;;;;0.20;0.20;;;;;;;12.48;83.88;100003.44;4979892;28;20121;-80
2022/04/08 03:15:52;;;;;;;0.20;0.20;;;;;;;12.39;83.64;99986.19;4980905;28;20038;-78
2022/04/08 03:18:21;;;;;;;0.20;0.20;;;;;;;12.36;83.98;99995.31;4979422;28;20029;-79
2022/04/08 03:20:47;;;;;;;0.20;0.20;;;;;;;12.42;83.13;99988.22;4982872;28;20030;-79
2022/04/08 03:23:13;;;;;;;0.20;0.20;;;;;;;12.40;83.01;99978.59;4987044;28;20026;-78
2022/04/08 03:25:38;;;;;;;0.20;0.20;;;;;;;12.38;83.68;99986.56;4982810;28;20030;-79
2022/04/08 03:28:06;;;;;;;0.20;0.20;;;;;;;12.38;83.77;99981.78;4983487;28;20473;-79
2022/04/08 03:30:32;;;;;;;0.20;0.20;;;;;;;12.33;84.42;99985.72;4981829;28;20109;-80
2022/04/08 03:32:58;;;;;;;0.20;0.20;;;;;;;12.33;84.40;99987.69;4979804;28;20034;-80
2022/04/08 03:35:23;;;;;;;0.20;0.20;;;;;;;12.34;84.51;99989.31;4979947;28;20042;-79
2022/04/08 03:37:55;;;;;;;0.20;0.20;;;;;;;12.29;84.33;99984.06;4976312;28;20054;-79
2022/04/08 03:40:20;;;;;;;0.20;0.20;;;;;;;12.30;84.02;99982.88;4976043;28;20037;-80
2022/04/08 03:42:46;;;;;;;0.20;0.20;;;;;;;12.31;83.24;99979.72;4976614;28;20031;-79
2022/04/08 03:45:13;;;;;;;0.20;0.20;;;;;;;12.35;83.67;99974.16;4976217;28;20023;-79
2022/04/08 03:47:39;;;;;;;0.20;0.20;;;;;;;12.33;83.63;99982.13;4975817;28;20033;-78
2022/04/08 03:50:06;;;;;;;0.20;0.20;;;;;;;12.37;83.98;99969.03;4975615;28;20034;-78
2022/04/08 03:52:34;;;;;;;0.20;0.20;;;;;;;12.31;83.56;99970.56;4978369;28;20389;-76
2022/04/08 03:55:04;;;;;;;0.20;0.20;;;;;;;12.31;83.87;99970.56;4979843;28;20050;-78
2022/04/08 03:57:35;;;;;;;0.20;0.20;;;;;;;12.31;84.14;99981.72;4979154;28;20118;-78
2022/04/08 04:00:00;;;;;;;0.20;0.20;;;;;;;12.51;84.29;99974.75;4979710;28;20117;-79
2022/04/08 04:02:26;;;;;;;0.20;0.20;;;;;;;12.52;84.07;99981.97;4983954;28;20046;-79
2022/04/08 04:04:59;;;;;;;0.20;0.20;;;;;;;12.61;84.27;99969.69;4985271;28;20039;-78
2022/04/08 04:07:25;;;;;;;0.20;0.20;;;;;;;12.46;83.70;99977.88;4983962;28;20117;-78
2022/04/08 04:09:51;;;;;;;0.20;0.20;;;;;;;12.39;84.81;99988.97;4985863;28;20041;-78
2022/04/08 04:12:16;;;;;;;0.20;0.20;;;;;;;12.41;85.25;99983.81;4982581;28;20035;-77
2022/04/08 04:14:42;;;;;;;0.20;0.20;;;;;;;12.40;85.16;99989.75;4983675;28;20051;-79
2022/04/08 04:17:10;;;;;;;0.20;0.20;;;;;;;12.34;85.77;99992.09;4981000;28;20034;-78
2022/04/08 04:19:36;;;;;;;0.20;0.20;;;;;;;12.26;85.93;99987.63;4979524;28;20035;-78
2022/04/08 04:22:05;;;;;;;0.20;0.20;;;;;;;12.29;85.97;99993.22;4981011;28;20031;-78
2022/04/08 04:24:36;;;;;;;0.20;0.20;;;;;;;12.42;84.85;99998.59;4986785;28;20061;-77
2022/04/08 04:27:07;;;;;;;0.20;0.20;;;;;;;12.38;85.60;100004.09;4989655;28;20098;-77
2022/04/08 04:29:33;;;;;;;0.20;0.20;;;;;;;12.31;85.73;99992.88;4988809;28;20093;-76
2022/04/08 04:32:03;;;;;;;0.20;0.20;;;;;;;12.26;86.03;99994.00;4988137;28;20027;-76
2022/04/08 04:34:36;;;;;;;0.20;0.20;;;;;;;12.30;86.13;100000.44;4985416;28;20174;-79
2022/04/08 04:37:05;;;;;;;0.20;0.20;;;;;;;12.34;85.76;99997.66;4991675;28;20046;-76
2022/04/08 04:39:30;;;;;;;0.20;0.20;;;;;;;12.22;85.78;99989.56;4988668;28;20041;-76
2022/04/08 04:41:56;;;;;;;0.20;0.20;;;;;;;12.26;85.77;100007.16;4984283;28;20026;-76
2022/04/08 04:44:27;;;;;;;0.20;0.20;;;;;;;12.32;85.84;100009.22;4983371;28;20041;-77
2022/04/08 04:46:56;;;;;;;0.20;0.20;;;;;;;12.34;85.15;100008.81;4984366;28;20038;-77
2022/04/08 04:49:25;;;;;;;0.20;0.20;;;;;;;12.32;85.38;100011.22;4983875;28;20168;-78
2022/04/08 04:51:53;;;;;;;0.20;0.20;;;;;;;12.36;85.26;100006.47;4982011;28;20030;-78
2022/04/08 04:54:22;;;;;;;0.20;0.20;;;;;;;12.34;84.62;100008.81;4984036;28;20050;-78
2022/04/08 04:56:50;;;;;;;0.20;0.20;;;;;;;12.34;84.95;100014.41;4983065;28;20045;-78
2022/04/08 04:59:16;;;;;;;0.20;0.20;;;;;;;12.34;85.06;100025.56;4981567;28;20033;-78
2022/04/08 05:01:41;;;;;;;0.20;0.20;;;;;;;12.41;84.57;100016.47;4982393;28;20034;-79
2022/04/08 05:04:10;;;;;;;0.20;0.20;;;;;;;12.40;84.79;100010.09;4981713;28;20060;-76
2022/04/08 05:06:35;;;;;;;0.20;0.20;;;;;;;12.38;85.07;100004.09;4985166;28;20038;-79
2022/04/08 05:09:03;;;;;;;0.20;0.20;;;;;;;12.45;85.41;100015.34;4985249;28;20077;-78
2022/04/08 05:11:29;;;;;;;0.20;0.20;;;;;;;12.57;85.39;100023.50;4985094;28;20044;-78
2022/04/08 05:13:57;;;;;;;0.20;0.20;;;;;;;12.73;85.44;100014.91;4984806;28;20469;-78
2022/04/08 05:16:28;;;;;;;0.20;0.20;;;;;;;12.71;85.84;100019.25;4984429;28;20030;-78
2022/04/08 05:18:57;;;;;;;0.20;0.20;;;;;;;12.68;86.14;100022.81;4984912;28;20189;-79
2022/04/08 05:21:23;;;;;;;0.20;0.20;;;;;;;12.70;86.52;100029.59;4984708;28;20034;-79
2022/04/08 05:23:49;;;;;;;0.20;0.20;;;;;;;12.69;87.02;100030.00;4983952;28;20120;-78
2022/04/08 05:26:15;;;;;;;0.20;0.20;;;;;;;12.66;86.95;100030.75;4983934;28;20030;-80
2022/04/08 05:28:41;;;;;;;0.20;0.20;;;;;;;12.72;87.11;100034.81;4984093;28;20041;-78
2022/04/08 05:31:09;;;;;;;0.20;0.20;;;;;;;12.81;87.23;100030.53;4984926;28;20050;-77
2022/04/08 05:33:37;;;;;;;0.20;0.20;;;;;;;12.86;86.15;100037.78;4984187;28;20034;-77
2022/04/08 05:36:06;;;;;;;0.20;0.20;;;;;;;12.88;85.48;100037.38;4983487;28;20405;-78
2022/04/08 05:38:37;;;;;;;0.20;0.20;;;;;;;13.00;84.65;100034.34;4980218;28;20053;-78
2022/04/08 05:41:05;;;;;;;0.20;0.20;;;;;;;13.11;83.89;100041.63;4980161;28;20065;-77
2022/04/08 05:43:31;;;;;;;0.20;0.20;;;;;;;13.18;81.87;100034.50;4980613;28;20031;-77
2022/04/08 05:46:00;;;;;;;0.20;0.20;;;;;;;13.06;82.53;100044.78;4982674;28;20026;-77
2022/04/08 05:48:26;;;;;;;0.20;0.20;;;;;;;13.11;82.53;100047.22;4987787;28;20038;-78
2022/04/08 05:50:51;;;;;;;0.20;0.20;;;;;;;13.08;82.35;100042.41;4983801;28;20093;-78
2022/04/08 05:53:22;;;;;;;0.20;0.20;;;;;;;13.17;81.69;100055.25;4978842;28;20030;-77
2022/04/08 05:55:50;;;;;;;0.20;0.20;;;;;;;13.21;81.54;100051.34;4978549;28;20027;-78
2022/04/08 05:58:15;;;;;;;0.20;0.20;;;;;;;13.43;80.59;100059.94;4981980;28;20042;-77
2022/04/08 06:00:46;;;;;;;0.20;0.20;;;;;;;15.18;75.17;100073.78;4982527;28;20124;-77
2022/04/08 06:03:14;;;;;;;0.20;0.20;;;;;;;16.14;68.92;100059.03;4976539;28;20058;-80
2022/04/08 06:05:41;;;;;;;0.20;0.20;;;;;;;16.22;67.96;100059.81;4975164;28;20473;-80
2022/04/08 06:08:07;;;;;;;0.20;0.20;;;;;;;15.88;68.36;100056.66;4974684;28;20039;-80
2022/04/08 06:10:36;;;;;;;0.20;0.20;;;;;;;15.43;69.93;100059.78;4958585;28;20031;-77
2022/04/08 06:13:02;;;;;;;0.20;0.20;;;;;;;15.31;69.81;100073.41;4975013;28;20039;-79
2022/04/08 06:15:31;;;;;;;0.20;0.20;;;;;;;14.86;71.46;100076.50;4975327;28;20385;-80
2022/04/08 06:18:00;;;;;;;0.20;0.20;;;;;;;14.73;72.20;100066.81;4976112;28;20037;-78
2022/04/08 06:20:28;;;;;;;0.20;0.20;;;;;;;14.77;73.10;100069.66;4974859;28;20098;-80
2022/04/08 06:22:54;;;;;;;0.20;0.20;;;;;;;15.24;71.48;100068.59;4974142;28;20105;-82
2022/04/08 06:25:26;;;;;;;0.28;0.28;;;;;;;16.49;66.98;100065.75;4973925;28;20027;-83
2022/04/08 06:28:04;;;;;;;0.20;0.20;;;;;;;17.69;60.78;100062.72;4974536;28;20035;-76
2022/04/08 06:30:39;;;;;;;0.20;0.20;;;;;;;18.72;58.29;100064.53;4973936;28;20029;-77
2022/04/08 06:33:09;;;;;;;0.20;0.20;;;;;;;18.43;57.37;100080.13;4975696;28;20043;-79
2022/04/08 06:35:34;;;;;;;0.20;0.20;;;;;;;18.77;56.02;100085.81;4973894;28;20054;-82
2022/04/08 06:38:02;;;;;;;0.20;0.20;;;;;;;18.18;57.44;100098.09;4973624;28;20504;-77
2022/04/08 06:40:32;;;;;;;0.20;0.20;;;;;;;19.15;56.30;100103.47;4973483;28;20030;-76
2022/04/08 06:43:01;;;;;;;0.20;0.20;;;;;;;19.40;54.71;100099.50;4974114;28;20097;-81
2022/04/08 06:45:27;;;;;;;0.20;0.20;;;;;;;19.27;54.04;100110.53;4973572;28;20086;-79
2022/04/08 06:47:59;;;;;;;0.20;0.20;;;;;;;19.57;52.64;100113.34;4974414;28;20022;-75
2022/04/08 06:50:29;;;;;;;0.20;0.20;;;;;;;19.15;54.02;100106.28;4973685;28;20117;-79
2022/04/08 06:52:59;;;;;;;0.15;0.15;;;;;;;19.80;52.47;100104.13;4973503;28;20263;-78
2022/04/08 06:55:27;;;;;;;0.20;0.20;;;;;;;20.60;50.08;100108.00;4973525;28;20038;-77
2022/04/08 06:57:53;;;;;;;0.20;0.20;;;;;;;20.07;52.41;100109.72;4973541;28;20039;-80
2022/04/08 07:00:21;;;;;;;0.20;0.20;;;;;;;19.36;53.73;100120.09;4973430;28;20039;-78
2022/04/08 07:02:49;;;;;;;0.20;0.20;;;;;;;19.10;55.67;100118.03;4973790;28;20026;-78
2022/04/08 07:05:15;;;;;;;0.20;0.20;;;;;;;19.37;54.67;100115.25;4973678;28;20037;-78
2022/04/08 07:07:47;;;;;;;0.20;0.20;;;;;;;20.67;51.51;100133.31;4973404;28;20381;-76
2022/04/08 07:10:13;;;;;;;0.13;0.13;;;;;;;21.23;49.65;100120.47;4973744;28;20039;-75
2022/04/08 07:12:38;;;;;;;0.20;0.20;;;;;;;20.82;50.42;100122.50;4973272;28;20035;-77
2022/04/08 07:15:05;;;;;;;0.20;0.20;;;;;;;20.72;51.73;100125.53;4973925;28;20038;-78
2022/04/08 07:17:36;;;;;;;0.20;0.20;;;;;;;21.51;48.93;100128.34;4973396;28;20035;-77
2022/04/08 07:20:02;;;;;;;0.20;0.20;;;;;;;20.60;51.29;100135.47;4973129;28;20022;-78
2022/04/08 07:22:28;;;;;;;0.10;0.10;;;;;;;21.18;49.06;100121.78;4973347;28;20027;-77
2022/04/08 07:24:57;;;;;;;0.20;0.20;;;;;;;21.94;46.70;100122.50;4973513;28;20027;-76
2022/04/08 07:27:22;;;;;;;0.20;0.20;;;;;;;21.29;47.86;100113.84;4975172;28;20077;-76
2022/04/08 07:29:51;;;;;;;0.20;0.20;;;;;;;21.68;47.00;100126.38;4977244;28;20046;-75
2022/04/08 07:32:22;;;;;;;0.10;0.10;;;;;;;21.67;46.70;100130.41;4977057;28;20062;-80
2022/04/08 07:34:50;;;;;;;0.20;0.20;;;;;;;22.33;44.88;100132.06;4977502;28;20093;-76
2022/04/08 07:37:36;;;;;;;0.20;0.20;;;;;;;21.76;45.44;100135.47;4976653;28;20058;-79
2022/04/08 07:40:08;;;;;;;0.20;0.20;;;;;;;21.47;45.99;100124.03;4976378;28;20031;-80
2022/04/08 07:42:35;;;;;;;0.10;0.10;;;;;;;21.84;44.59;100134.88;4976855;28;20062;-78
2022/04/08 07:45:04;;;;;;;0.20;0.20;;;;;;;22.16;43.80;100130.47;4976736;28;20027;-78
2022/04/08 07:47:36;;;;;;;0.20;0.20;;;;;;;21.64;43.96;100136.97;4976703;28;20097;-75
2022/04/08 07:50:10;;;;;;;0.20;0.20;;;;;;;20.86;46.63;100134.53;4972900;28;20035;-78
2022/04/08 07:52:40;;;;;;;0.20;0.20;;;;;;;20.98;46.99;100140.78;4976524;28;20034;-76
2022/04/08 07:55:09;;;;;;;0.20;0.20;;;;;;;20.29;47.08;100149.72;4977482;28;20058;-78
2022/04/08 07:57:45;;;;;;;0.10;0.10;;;;;;;19.46;50.01;100151.41;4977110;28;20469;-77
2022/04/08 08:00:21;;;;;;;0.20;0.20;;;;;;;18.54;52.27;100143.63;4976696;28;20055;-77
2022/04/08 08:02:48;;;;;;;0.20;0.20;;;;;;;18.56;53.05;100146.00;4976461;28;20031;-75
2022/04/08 08:05:17;;;;;;;0.10;0.10;;;;;;;18.14;54.23;100148.00;4977788;28;20061;-80
2022/04/08 08:07:48;;;;;;;0.20;0.20;;;;;;;18.07;54.58;100153.72;4976504;28;20031;-77
2022/04/08 08:10:15;;;;;;;0.20;0.20;;;;;;;18.15;54.14;100154.44;4976444;28;20035;-75
2022/04/08 08:12:41;;;;;;;0.20;0.20;;;;;;;18.10;54.27;100161.31;4976588;28;20031;-79
2022/04/08 08:15:07;;;;;;;0.20;0.20;;;;;;;18.32;53.82;100159.94;4976314;28;20385;-80
2022/04/08 08:17:32;;;;;;;0.20;0.20;;;;;;;18.26;53.92;100169.22;4975862;28;20034;-82
2022/04/08 08:20:01;;;;;;;0.20;0.20;;;;;;;18.16;54.06;100178.56;4976486;28;20030;-77
2022/04/08 08:22:26;;;;;;;0.20;0.20;;;;;;;18.40;54.16;100169.09;4976083;28;20022;-77
2022/04/08 08:24:52;;;;;;;0.20;0.20;;;;;;;18.33;54.15;100175.59;4976131;28;20023;-81
2022/04/08 08:27:23;;;;;;;0.20;0.20;;;;;;;18.32;53.31;100181.63;4976009;28;20035;-82
2022/04/08 08:29:52;;;;;;;0.15;0.15;;;;;;;17.85;54.30;100186.84;4976342;28;20027;-78
2022/04/08 08:32:21;;;;;;;0.20;0.20;;;;;;;17.64;55.08;100182.13;4976129;28;20031;-75
2022/04/08 08:34:53;;;;;;;0.20;0.20;;;;;;;18.02;54.72;100173.84;4976080;28;20485;-76
2022/04/08 08:37:19;;;;;;;0.20;0.20;;;;;;;18.17;54.21;100175.34;4975715;28;20057;-81
2022/04/08 08:39:45;;;;;;;0.20;0.20;;;;;;;18.22;53.40;100188.97;4976097;28;20440;-78
2022/04/08 08:42:11;;;;;;;0.20;0.20;;;;;;;17.98;54.67;100184.34;4975700;28;20066;-76
2022/04/08 08:44:41;;;;;;;0.20;0.20;;;;;;;17.98;53.37;100184.34;4975846;28;20019;-84
2022/04/08 08:47:12;;;;;;;0.20;0.20;;;;;;;18.02;53.90;100173.84;4975599;28;20125;-82
2022/04/08 08:49:44;;;;;;;0.20;0.20;;;;;;;18.34;53.20;100145.41;4975647;28;20023;-80
2022/04/08 08:52:10;;;;;;;0.20;0.20;;;;;;;18.51;52.45;100166.97;4975576;28;20129;-81
2022/04/08 08:54:36;;;;;;;0.20;0.20;;;;;;;18.16;54.16;100184.97;4975988;28;20031;-76
2022/04/08 08:57:05;;;;;;;0.20;0.20;;;;;;;18.47;52.04;100185.13;4975514;28;20525;-81
2022/04/08 08:59:31;;;;;;;0.20;0.20;;;;;;;18.60;52.28;100180.59;4977024;28;20031;-80
2022/04/08 09:02:01;;;;;;;0.20;0.20;;;;;;;18.72;51.77;100182.91;4975482;28;20053;-81
2022/04/08 09:04:30;;;;;;;0.20;0.20;;;;;;;18.75;50.93;100176.44;4976632;28;20037;-78
2022/04/08 09:06:59;;;;;;;0.20;0.20;;;;;;;18.84;50.97;100179.53;4975512;28;20031;-77
2022/04/08 09:09:34;;;;;;;0.10;0.10;;;;;;;19.31;50.78;100185.44;4976378;28;20393;-83
2022/04/08 09:12:13;;;;;;;0.20;0.20;;;;;;;19.40;49.50;100181.31;4975696;28;20506;-79
2022/04/08 09:14:47;;;;;;;0.20;0.20;;;;;;;19.40;49.91;100181.31;4975476;28;20482;-80
2022/04/08 09:17:15;;;;;;;0.20;0.20;;;;;;;19.38;49.48;100184.53;4975064;28;20042;-77
2022/04/08 09:19:41;;;;;;;0.17;0.17;;;;;;;19.99;48.78;100172.44;4975226;28;20489;-81
2022/04/08 09:22:12;;;;;;;0.20;0.20;;;;;;;20.92;45.06;100165.94;4975760;28;20031;-77
2022/04/08 09:24:38;;;;;;;0.10;0.10;;;;;;;20.72;46.21;100174.44;4975190;28;20492;-80
2022/04/08 09:27:10;;;;;;;0.10;0.10;;;;;;;20.23;46.67;100176.06;4974941;28;20030;-79
2022/04/08 09:29:44;;;;;;;0.20;0.20;;;;;;;20.41;45.09;100176.56;4975151;28;20037;-77
2022/04/08 09:32:15;;;;;;;0.20;0.20;;;;;;;20.84;45.55;100165.31;4974789;28;20030;-78
2022/04/08 09:34:42;;;;;;;0.20;0.20;;;;;;;20.90;44.21;100157.91;4975022;28;20330;-77
2022/04/08 09:37:12;;;;;;;0.20;0.20;;;;;;;20.62;44.89;100161.28;4974901;28;20063;-76
2022/04/08 09:39:59;;;;;;;0.10;0.10;;;;;;;20.49;45.08;100168.78;4958809;28;20046;-80
2022/04/08 09:42:42;;;;;;;0.20;0.20;;;;;;;20.23;45.47;100168.38;4974925;28;20035;-76
2022/04/08 09:45:09;;;;;;;0.20;0.20;;;;;;;20.66;44.58;100159.16;4974497;28;20042;-81
2022/04/08 09:47:38;;;;;;;0.20;0.20;;;;;;;21.17;43.38;100160.59;4974118;28;20308;-78
2022/04/08 09:50:05;;;;;;;0.10;0.10;;;;;;;21.50;41.12;100157.09;4974599;28;20023;-77
2022/04/08 09:52:32;;;;;;;0.20;0.20;;;;;;;21.90;40.42;100150.09;4974499;28;20477;-79
2022/04/08 09:55:03;;;;;;;0.20;0.20;;;;;;;22.46;39.43;100152.75;4974462;28;20022;-80
2022/04/08 09:57:36;;;;;;;0.20;0.20;;;;;;;22.87;37.32;100153.28;4974543;28;20031;-77
2022/04/08 10:00:03;;;;;;;0.20;0.20;;;;;;;22.86;36.43;100154.53;4975690;28;20081;-77
2022/04/08 10:02:32;;;;;;;0.20;0.20;;;;;;;23.21;35.98;100147.06;4974741;28;20031;-78
2022/04/08 10:05:02;;;;;;;0.10;0.10;;;;;;;22.41;36.38;100147.63;4974237;28;20034;-81
2022/04/08 10:07:31;;;;;;;0.20;0.20;;;;;;;22.55;37.05;100140.78;4974128;28;20093;-77
2022/04/08 10:10:26;;;;;;;0.20;0.20;;;;;;;23.44;35.64;100149.63;4974232;28;20533;-82
2022/04/08 10:13:16;;;;;;;0.10;0.10;;;;;;;23.27;36.19;100119.72;4972530;28;20058;-80
2022/04/08 10:16:03;;;;;;;0.20;0.20;;;;;;;23.49;35.91;100154.75;4974486;28;20030;-74
2022/04/08 10:18:39;;;;;;;0.13;0.13;;;;;;;22.75;37.46;100147.13;4966686;28;20523;-77
2022/04/08 10:21:05;;;;;;;0.10;0.10;;;;;;;23.39;34.91;100144.50;4973896;28;20058;-80
2022/04/08 10:23:56;;;;;;;0.10;0.10;;;;;;;23.60;34.92;100136.56;4974239;28;20499;-77
2022/04/08 10:26:26;;;;;;;0.20;0.20;;;;;;;23.16;36.13;100125.69;4975587;28;20030;-78
2022/04/08 10:28:55;;;;;;;0.10;0.10;;;;;;;23.42;36.82;100132.22;4973641;28;20121;-77
2022/04/08 10:31:24;;;;;;;0.13;0.13;;;;;;;22.91;37.73;100145.50;4974103;28;20559;-76
2022/04/08 10:33:56;;;;;;;0.13;0.13;;;;;;;22.91;36.68;100140.63;4974440;28;20034;-79
2022/04/08 10:36:36;;;;;;;0.10;0.10;;;;;;;22.17;38.58;100144.19;4958392;28;20041;-77
2022/04/08 10:39:21;;;;;;;0.10;0.10;;;;;;;22.49;39.25;100132.03;4975280;28;20172;-76
2022/04/08 10:42:00;;;;;;;0.20;0.20;;;;;;;22.73;39.36;100132.56;4973517;28;20125;-81
2022/04/08 10:44:37;;;;;;;0.20;0.20;;;;;;;23.33;38.42;100123.59;4973698;28;20045;-81
2022/04/08 10:47:10;;;;;;;0.20;0.20;;;;;;;23.57;38.01;100124.06;4973732;28;20019;-74
2022/04/08 10:49:49;;;;;;;;;;;;;;;23.87;37.02;100139.78;4975128;28;20378;-78
2022/04/08 10:52:16;;;;;;;0.20;0.20;;;;;;;23.73;37.08;100128.88;4973816;28;19957;-79
2022/04/08 10:54:45;;;;;;;0.20;0.20;;;;;;;23.61;37.34;100133.28;4974668;28;20071;-76
2022/04/08 10:57:11;;;;;;;0.20;0.20;;;;;;;23.08;37.78;100135.69;4973452;28;20054;-74
2022/04/08 10:59:39;;;;;;;0.20;0.20;;;;;;;22.56;38.12;100133.88;4973903;28;20071;-78
2022/04/08 11:02:11;;;;;;;0.20;0.20;;;;;;;22.67;37.59;100133.56;4972798;28;20038;-78
2022/04/08 11:04:37;;;;;;;0.20;0.20;;;;;;;22.54;36.93;100119.34;4973810;28;20033;-81
2022/04/08 11:07:11;;;;;;;0.20;0.20;;;;;;;22.59;37.18;100120.84;4973413;28;20043;-77
2022/04/08 11:09:40;;;;;;;0.20;0.20;;;;;;;22.28;38.29;100128.97;4972773;28;20039;-79
2022/04/08 11:12:06;;;;;;;0.10;0.10;;;;;;;22.17;38.43;100126.41;4973751;28;20381;-80
2022/04/08 11:14:32;;;;;;;0.20;0.20;;;;;;;21.79;38.74;100121.25;4973736;28;20027;-80
2022/04/08 11:17:05;;;;;;;0.20;0.20;;;;;;;22.03;38.98;100123.88;4973290;28;20023;-75
2022/04/08 11:19:37;;;;;;;0.20;0.20;;;;;;;21.81;39.80;100118.75;4973197;28;20057;-77
2022/04/08 11:22:10;;;;;;;0.20;0.20;;;;;;;20.86;39.34;100113.97;4973482;28;20362;-80
2022/04/08 11:24:39;;;;;;;0.20;0.20;;;;;;;21.58;37.59;100105.56;4973369;28;20030;-81
2022/04/08 11:27:04;;;;;;;0.10;0.10;;;;;;;21.92;37.24;100107.97;4973260;28;20167;-76
2022/04/08 11:29:31;;;;;;;0.10;0.10;;;;;;;21.04;38.18;100099.44;4973749;28;20056;-81
2022/04/08 11:32:11;;;;;;;0.10;0.10;;;;;;;21.14;38.48;100104.88;4973184;28;20049;-74
2022/04/08 11:34:37;;;;;;;0.20;0.20;;;;;;;21.53;38.06;100097.59;4973725;28;20054;-79